createdAt,value
2017-10-05T00:01:51.796Z,8.33
2017-10-05T00:04:17.987Z,8.23
2017-10-05T00:06:44.190Z,8.23
2017-10-05T00:09:10.400Z,8.17
2017-10-05T00:11:36.598Z,8.14
2017-10-05T00:14:02.824Z,8.10
2017-10-05T00:16:29.026Z,8.08
2017-10-05T00:18:55.254Z,8.02
2017-10-05T00:21:21.430Z,8.02
2017-10-05T00:23:47.584Z,7.96
2017-10-05T00:26:13.750Z,7.96
2017-10-05T00:28:39.925Z,7.95
2017-10-05T00:31:06.102Z,7.91
2017-10-05T00:33:32.274Z,7.90
2017-10-05T00:35:58.448Z,7.87
2017-10-05T00:38:24.641Z,7.86
2017-10-05T00:40:50.839Z,7.78
2017-10-05T00:43:17.030Z,7.71
2017-10-05T00:45:43.213Z,7.70
2017-10-05T00:48:09.380Z,7.71
2017-10-05T00:50:35.559Z,7.70
2017-10-05T00:53:01.751Z,7.72
2017-10-05T00:55:27.933Z,7.68
2017-10-05T00:57:54.134Z,7.59
2017-10-05T01:00:20.320Z,7.58
2017-10-05T01:02:46.498Z,7.56
2017-10-05T01:05:12.724Z,7.54
2017-10-05T01:07:38.912Z,7.53
2017-10-05T01:10:05.102Z,7.49
2017-10-05T01:12:31.280Z,7.50
2017-10-05T01:14:57.469Z,7.50
2017-10-05T01:17:23.672Z,7.53
2017-10-05T01:19:49.884Z,7.53
2017-10-05T01:22:16.081Z,7.50
2017-10-05T01:24:42.276Z,7.49
2017-10-05T01:27:08.486Z,7.43
2017-10-05T01:29:34.766Z,7.41
2017-10-05T01:32:00.950Z,7.41
2017-10-05T01:34:27.118Z,7.39
2017-10-05T01:36:53.329Z,7.40
2017-10-05T01:39:19.524Z,7.35
2017-10-05T01:41:45.709Z,7.35
2017-10-05T01:44:11.912Z,7.25
2017-10-05T01:46:38.113Z,7.29
2017-10-05T01:49:04.309Z,7.27
2017-10-05T01:51:30.504Z,7.26
2017-10-05T01:53:56.736Z,7.22
2017-10-05T01:56:22.915Z,7.22
2017-10-05T01:58:49.103Z,7.24
2017-10-05T02:01:15.297Z,7.25
2017-10-05T02:03:41.490Z,7.23
2017-10-05T02:06:07.733Z,7.23
2017-10-05T02:08:33.929Z,7.26
2017-10-05T02:11:00.129Z,7.29
2017-10-05T02:13:26.329Z,7.24
2017-10-05T02:15:52.500Z,7.14
2017-10-05T02:18:18.698Z,7.10
2017-10-05T02:20:44.889Z,7.12
2017-10-05T02:23:11.097Z,7.01
2017-10-05T02:25:37.297Z,7.10
2017-10-05T02:28:03.496Z,7.06
2017-10-05T02:30:29.718Z,7.08
2017-10-05T02:32:55.905Z,7.03
2017-10-05T02:35:22.115Z,7.03
2017-10-05T02:37:48.328Z,7.02
2017-10-05T02:40:14.501Z,6.99
2017-10-05T02:42:40.726Z,6.93
2017-10-05T02:45:06.944Z,6.90
2017-10-05T02:47:33.128Z,6.89
2017-10-05T02:49:59.345Z,6.85
2017-10-05T02:52:25.556Z,6.84
2017-10-05T02:54:51.779Z,6.83
2017-10-05T02:57:17.962Z,6.90
2017-10-05T02:59:44.137Z,6.93
2017-10-05T03:02:10.329Z,6.92
2017-10-05T03:04:36.520Z,6.94
2017-10-05T03:07:02.777Z,6.98
2017-10-05T03:09:28.964Z,6.99
2017-10-05T03:11:55.153Z,6.99
2017-10-05T03:14:21.341Z,6.98
2017-10-05T03:16:47.534Z,6.94
2017-10-05T03:19:13.722Z,6.91
2017-10-05T03:21:39.910Z,6.93
2017-10-05T03:24:06.126Z,7.04
2017-10-05T03:26:32.294Z,7.02
2017-10-05T03:28:58.485Z,7.01
2017-10-05T03:31:24.713Z,7.03
2017-10-05T03:33:50.908Z,7.07
2017-10-05T03:36:17.114Z,7.08
2017-10-05T03:38:43.312Z,7.12
2017-10-05T03:41:09.503Z,7.14
2017-10-05T03:43:35.714Z,7.17
2017-10-05T03:46:01.929Z,7.19
2017-10-05T03:48:28.115Z,7.22
2017-10-05T03:50:54.322Z,7.23
2017-10-05T03:53:20.521Z,7.22
2017-10-05T03:55:46.766Z,7.20
2017-10-05T03:58:12.964Z,7.12
2017-10-05T04:00:39.152Z,7.11
2017-10-05T04:03:05.325Z,7.08
2017-10-05T04:05:31.503Z,7.12
2017-10-05T04:07:57.759Z,7.06
2017-10-05T04:10:23.934Z,7.07
2017-10-05T04:12:50.127Z,7.05
2017-10-05T04:15:16.366Z,7.02
2017-10-05T04:17:42.563Z,6.99
2017-10-05T04:20:08.836Z,6.95
2017-10-05T04:22:35.031Z,6.97
2017-10-05T04:25:01.235Z,7.01
2017-10-05T04:27:27.428Z,7.04
2017-10-05T04:29:53.621Z,7.10
2017-10-05T04:32:19.801Z,7.22
2017-10-05T04:34:45.988Z,7.30
2017-10-05T04:37:12.196Z,7.37
2017-10-05T04:39:38.381Z,7.42
2017-10-05T04:42:04.554Z,7.57
2017-10-05T04:44:30.807Z,7.71
2017-10-05T04:46:57.004Z,7.75
2017-10-05T04:49:23.195Z,8.18
2017-10-05T04:51:49.408Z,9.29
2017-10-05T04:54:15.605Z,10.14
2017-10-05T04:56:41.812Z,10.45
2017-10-05T04:59:08.073Z,10.71
2017-10-05T05:01:34.266Z,11.36
2017-10-05T05:04:00.466Z,11.78
2017-10-05T05:06:26.664Z,11.88
2017-10-05T05:08:52.887Z,11.93
2017-10-05T05:11:19.070Z,12.33
2017-10-05T05:13:45.262Z,13.23
2017-10-05T05:16:11.506Z,13.53
2017-10-05T05:18:37.698Z,13.27
2017-10-05T05:21:03.878Z,13.10
2017-10-05T05:23:30.049Z,13.32
2017-10-05T05:25:56.231Z,14.20
2017-10-05T05:28:22.441Z,15.49
2017-10-05T05:30:48.620Z,16.79
2017-10-05T05:33:14.781Z,18.01
2017-10-05T05:35:40.984Z,19.14
2017-10-05T05:38:07.147Z,19.79
2017-10-05T05:40:33.367Z,19.87
2017-10-05T05:42:59.549Z,20.76
2017-10-05T05:45:25.879Z,20.84
2017-10-05T05:47:52.116Z,21.08
2017-10-05T05:50:18.367Z,21.23
2017-10-05T05:52:44.562Z,21.34
2017-10-05T05:55:10.807Z,21.68
2017-10-05T05:57:36.987Z,21.47
2017-10-05T06:00:03.171Z,21.10
2017-10-05T06:02:29.381Z,20.99
2017-10-05T06:04:55.573Z,21.48
2017-10-05T06:07:21.743Z,21.79
2017-10-05T06:09:47.948Z,21.89
2017-10-05T06:12:14.132Z,22.77
2017-10-05T06:14:40.347Z,22.61
2017-10-05T06:17:06.547Z,22.17
2017-10-05T06:19:32.729Z,21.78
2017-10-05T06:21:58.930Z,22.54
2017-10-05T06:24:25.127Z,23.96
2017-10-05T06:26:51.340Z,24.26
2017-10-05T06:29:17.541Z,24.23
2017-10-05T06:31:43.763Z,24.68
2017-10-05T06:34:09.948Z,24.74
2017-10-05T06:36:36.128Z,24.30
2017-10-05T06:39:02.365Z,25.18
2017-10-05T06:41:28.570Z,25.43
2017-10-05T06:43:54.745Z,25.35
2017-10-05T06:46:20.933Z,25.46
2017-10-05T06:48:47.108Z,25.51
2017-10-05T06:51:13.336Z,24.89
2017-10-05T06:53:39.525Z,24.75
2017-10-05T06:56:05.725Z,25.58
2017-10-05T06:58:31.915Z,25.43
2017-10-05T07:00:58.126Z,25.17
2017-10-05T07:03:24.324Z,25.36
2017-10-05T07:05:50.502Z,25.65
2017-10-05T07:08:16.712Z,26.02
2017-10-05T07:10:42.898Z,25.25
2017-10-05T07:13:09.092Z,25.94
2017-10-05T07:15:35.321Z,26.16
2017-10-05T07:18:01.520Z,26.39
2017-10-05T07:20:27.726Z,27.75
2017-10-05T07:22:53.940Z,28.14
2017-10-05T07:25:20.154Z,26.99
2017-10-05T07:27:46.342Z,27.37
2017-10-05T07:30:12.533Z,28.08
2017-10-05T07:32:38.706Z,28.14
2017-10-05T07:35:04.882Z,27.56
2017-10-05T07:37:31.060Z,27.65
2017-10-05T07:39:57.273Z,28.37
2017-10-05T07:42:23.459Z,28.36
2017-10-05T07:44:49.644Z,28.43
2017-10-05T07:47:16.036Z,28.35
2017-10-05T07:49:42.227Z,28.60
2017-10-05T07:52:08.477Z,28.85
2017-10-05T07:54:34.663Z,29.37
2017-10-05T07:57:00.868Z,29.35
2017-10-05T07:59:27.064Z,29.23
2017-10-05T08:01:53.244Z,30.20
2017-10-05T08:04:19.425Z,31.24
2017-10-05T08:06:45.628Z,30.83
2017-10-05T08:09:11.816Z,30.59
2017-10-05T08:11:38.000Z,29.95
2017-10-05T08:14:04.193Z,30.57
2017-10-05T08:16:30.390Z,31.94
2017-10-05T08:21:28.989Z,31.96
2017-10-05T08:23:55.199Z,32.01
2017-10-05T08:26:21.403Z,31.89
2017-10-05T08:28:47.634Z,32.80
2017-10-05T08:31:13.809Z,32.97
2017-10-05T08:33:39.977Z,32.35
2017-10-05T08:36:06.141Z,32.23
2017-10-05T08:38:32.327Z,31.97
2017-10-05T08:40:58.519Z,31.89
2017-10-05T08:43:24.740Z,31.58
2017-10-05T08:45:50.916Z,31.52
2017-10-05T08:48:17.102Z,31.97
2017-10-05T08:50:43.349Z,32.20
2017-10-05T08:53:09.530Z,31.99
2017-10-05T08:55:35.700Z,32.10
2017-10-05T08:58:01.892Z,32.30
2017-10-05T09:00:28.055Z,32.90
2017-10-05T09:02:54.236Z,33.17
2017-10-05T09:05:20.427Z,34.16
2017-10-05T09:07:46.634Z,32.37
2017-10-05T09:10:12.837Z,33.39
2017-10-05T09:12:39.019Z,34.36
2017-10-05T09:15:05.198Z,34.08
2017-10-05T09:17:31.371Z,33.73
2017-10-05T09:19:57.614Z,33.87
2017-10-05T09:22:23.779Z,33.86
2017-10-05T09:24:49.994Z,34.15
2017-10-05T09:27:16.306Z,33.15
2017-10-05T09:29:42.470Z,33.51
2017-10-05T09:32:08.678Z,33.65
2017-10-05T09:34:34.844Z,34.84
2017-10-05T09:37:01.012Z,34.77
2017-10-05T09:39:27.220Z,34.58
2017-10-05T09:41:53.398Z,34.04
2017-10-05T09:44:19.626Z,33.26
2017-10-05T09:46:45.792Z,32.30
2017-10-05T09:49:11.990Z,33.37
2017-10-05T09:51:38.143Z,33.59
2017-10-05T09:54:04.317Z,34.07
2017-10-05T09:56:30.530Z,34.21
2017-10-05T09:58:56.726Z,34.07
2017-10-05T10:01:22.894Z,33.30
2017-10-05T10:03:49.062Z,32.66
2017-10-05T10:06:15.219Z,32.14
2017-10-05T10:08:41.394Z,31.57
2017-10-05T10:11:07.602Z,29.31
2017-10-05T10:13:33.813Z,29.36
2017-10-05T10:16:00.003Z,29.76
2017-10-05T10:18:26.194Z,29.43
2017-10-05T10:20:52.380Z,29.08
2017-10-05T10:23:18.560Z,28.89
2017-10-05T10:25:44.739Z,30.36
2017-10-05T10:28:10.925Z,30.90
2017-10-05T10:30:37.111Z,32.62
2017-10-05T10:33:03.298Z,32.64
2017-10-05T10:35:29.476Z,32.88
2017-10-05T10:37:55.658Z,32.23
2017-10-05T10:40:21.860Z,32.04
2017-10-05T10:42:48.043Z,32.24
2017-10-05T10:45:14.256Z,31.97
2017-10-05T10:47:40.481Z,32.25
2017-10-05T10:50:06.642Z,31.98
2017-10-05T10:52:33.001Z,31.64
2017-10-05T10:54:59.227Z,31.45
2017-10-05T10:57:25.556Z,31.76
2017-10-05T10:59:51.729Z,32.14
2017-10-05T11:02:17.926Z,32.33
2017-10-05T11:04:44.110Z,33.18
2017-10-05T11:07:10.295Z,33.03
2017-10-05T11:09:36.460Z,31.89
2017-10-05T11:12:02.609Z,31.24
2017-10-05T11:14:28.769Z,31.29
2017-10-05T11:16:54.960Z,31.48
2017-10-05T11:19:21.600Z,32.19
2017-10-05T11:21:47.769Z,32.67
2017-10-05T11:24:13.956Z,33.34
2017-10-05T11:26:40.271Z,34.33
2017-10-05T11:29:06.455Z,34.64
2017-10-05T11:31:32.632Z,35.01
2017-10-05T11:33:58.865Z,34.51
2017-10-05T11:36:25.047Z,34.89
2017-10-05T11:38:51.238Z,35.30
2017-10-05T11:41:17.439Z,34.96
2017-10-05T11:43:43.674Z,33.67
2017-10-05T11:46:09.866Z,33.64
2017-10-05T11:48:36.070Z,33.96
2017-10-05T11:51:02.267Z,33.39
2017-10-05T11:53:28.465Z,32.05
2017-10-05T11:55:54.686Z,31.54
2017-10-05T11:58:20.868Z,31.46
2017-10-05T12:00:47.061Z,32.13
2017-10-05T12:03:13.249Z,32.12
2017-10-05T12:05:39.419Z,31.48
2017-10-05T12:08:05.577Z,31.78
2017-10-05T12:10:31.797Z,31.71
2017-10-05T12:12:57.966Z,31.89
2017-10-05T12:15:24.149Z,32.99
2017-10-05T12:17:50.335Z,33.47
2017-10-05T12:20:17.144Z,32.26
2017-10-05T12:22:43.324Z,32.52
2017-10-05T12:25:09.479Z,33.18
2017-10-05T12:27:35.689Z,33.58
2017-10-05T12:30:01.849Z,34.10
2017-10-05T12:32:28.049Z,33.02
2017-10-05T12:34:54.234Z,33.56
2017-10-05T12:37:20.407Z,33.71
2017-10-05T12:39:46.636Z,33.62
2017-10-05T12:42:12.826Z,34.44
2017-10-05T12:44:39.009Z,33.22
2017-10-05T12:47:05.172Z,33.58
2017-10-05T12:49:31.371Z,34.89
2017-10-05T12:51:57.550Z,34.24
2017-10-05T12:54:23.723Z,34.88
2017-10-05T12:56:49.903Z,33.80
2017-10-05T12:59:16.075Z,34.90
2017-10-05T13:01:42.255Z,34.34
2017-10-05T13:04:08.459Z,35.17
2017-10-05T13:06:34.631Z,35.25
2017-10-05T13:09:00.823Z,36.49
2017-10-05T13:11:27.033Z,34.62
2017-10-05T13:13:53.206Z,35.09
2017-10-05T13:16:19.402Z,35.23
2017-10-05T13:18:45.598Z,34.31
2017-10-05T13:21:11.766Z,33.70
2017-10-05T13:23:37.958Z,32.85
2017-10-05T13:26:04.198Z,31.17
2017-10-05T13:28:30.490Z,29.99
2017-10-05T13:30:56.677Z,29.27
2017-10-05T13:33:22.855Z,28.44
2017-10-05T13:35:49.094Z,27.59
2017-10-05T13:38:15.275Z,27.27
2017-10-05T13:40:41.445Z,26.60
2017-10-05T13:43:07.634Z,26.36
2017-10-05T13:45:34.476Z,26.09
2017-10-05T13:48:00.688Z,26.01
2017-10-05T13:50:26.866Z,25.82
2017-10-05T13:52:53.050Z,25.86
2017-10-05T13:55:19.244Z,25.72
2017-10-05T13:57:45.433Z,25.58
2017-10-05T14:00:11.637Z,25.26
2017-10-05T14:02:37.878Z,25.31
2017-10-05T14:05:04.083Z,25.32
2017-10-05T14:07:30.302Z,25.29
2017-10-05T14:09:56.541Z,25.20
2017-10-05T14:12:22.750Z,25.10
2017-10-05T14:14:48.949Z,25.11
2017-10-05T14:17:15.132Z,25.07
2017-10-05T14:19:41.361Z,24.99
2017-10-05T14:22:07.539Z,24.87
2017-10-05T14:24:33.734Z,24.76
2017-10-05T14:26:59.926Z,24.69
2017-10-05T14:29:26.112Z,24.62
2017-10-05T14:31:52.278Z,24.56
2017-10-05T14:34:18.465Z,24.52
2017-10-05T14:36:44.665Z,24.46
2017-10-05T14:39:10.863Z,24.32
2017-10-05T14:41:37.043Z,24.27
2017-10-05T14:44:03.270Z,24.16
2017-10-05T14:46:29.447Z,24.09
2017-10-05T14:48:55.608Z,23.99
2017-10-05T14:51:21.800Z,23.90
2017-10-05T14:53:47.949Z,23.81
2017-10-05T14:56:14.138Z,23.73
2017-10-05T14:58:40.338Z,23.66
2017-10-05T15:01:06.525Z,23.63
2017-10-05T15:03:32.762Z,23.58
2017-10-05T15:05:58.921Z,23.46
2017-10-05T15:08:25.103Z,23.31
2017-10-05T15:10:51.304Z,23.21
2017-10-05T15:13:17.511Z,23.08
2017-10-05T15:15:43.712Z,22.94
2017-10-05T15:18:09.901Z,22.74
2017-10-05T15:20:36.129Z,22.53
2017-10-05T15:23:02.313Z,22.27
2017-10-05T15:25:28.477Z,22.03
2017-10-05T15:27:54.660Z,21.85
2017-10-05T15:30:20.855Z,21.64
2017-10-05T15:32:47.035Z,21.43
2017-10-05T15:35:13.211Z,21.19
2017-10-05T15:37:39.390Z,20.91
2017-10-05T15:40:05.576Z,20.66
2017-10-05T15:42:31.730Z,20.43
2017-10-05T15:44:57.938Z,20.21
2017-10-05T15:47:24.107Z,20.06
2017-10-05T15:49:50.300Z,19.89
2017-10-05T15:52:16.513Z,19.60
2017-10-05T15:54:42.725Z,19.33
2017-10-05T15:57:09.012Z,19.06
2017-10-05T15:59:35.162Z,18.91
2017-10-05T16:02:01.356Z,18.74
2017-10-05T16:04:27.554Z,18.53
2017-10-05T16:06:53.703Z,18.32
2017-10-05T16:09:19.906Z,18.12
2017-10-05T16:11:46.086Z,17.94
2017-10-05T16:14:12.270Z,17.88
2017-10-05T16:16:38.436Z,17.86
2017-10-05T16:19:04.646Z,17.82
2017-10-05T16:21:30.915Z,17.67
2017-10-05T16:23:57.069Z,17.54
2017-10-05T16:26:23.253Z,17.44
2017-10-05T16:28:49.419Z,17.28
2017-10-05T16:31:15.585Z,17.15
2017-10-05T16:33:41.741Z,17.03
2017-10-05T16:36:07.935Z,16.88
2017-10-05T16:38:34.104Z,16.74
2017-10-05T16:41:00.297Z,16.70
2017-10-05T16:43:26.460Z,16.65
2017-10-05T16:45:52.622Z,16.42
2017-10-05T16:48:18.772Z,16.37
2017-10-05T16:50:44.946Z,16.34
2017-10-05T16:53:11.141Z,16.29
2017-10-05T16:55:37.293Z,16.23
2017-10-05T16:58:03.490Z,16.20
2017-10-05T17:00:29.640Z,16.17
2017-10-05T17:02:55.809Z,16.03
2017-10-05T17:05:21.982Z,15.97
2017-10-05T17:07:48.178Z,15.95
2017-10-05T17:10:14.358Z,15.89
2017-10-05T17:12:40.585Z,15.83
2017-10-05T17:15:06.757Z,15.83
2017-10-05T17:17:32.960Z,15.63
2017-10-05T17:19:59.286Z,15.55
2017-10-05T17:22:25.459Z,15.40
2017-10-05T17:24:51.628Z,15.32
2017-10-05T17:27:17.845Z,15.21
2017-10-05T17:29:43.995Z,15.15
2017-10-05T17:32:10.147Z,15.02
2017-10-05T17:34:36.316Z,15.04
2017-10-05T17:37:02.467Z,15.16
2017-10-05T17:39:28.674Z,15.16
2017-10-05T17:41:54.846Z,15.16
2017-10-05T17:44:20.992Z,15.11
2017-10-05T17:46:47.186Z,15.17
2017-10-05T17:49:13.336Z,15.24
2017-10-05T17:51:39.473Z,15.10
2017-10-05T17:54:05.611Z,14.98
2017-10-05T17:56:31.758Z,14.99
2017-10-05T17:58:57.929Z,14.91
2017-10-05T18:01:24.092Z,14.78
2017-10-05T18:03:50.247Z,14.56
2017-10-05T18:06:16.422Z,14.46
2017-10-05T18:08:42.572Z,14.33
2017-10-05T18:11:08.778Z,14.26
2017-10-05T18:13:34.926Z,14.11
2017-10-05T18:16:01.076Z,13.99
2017-10-05T18:18:27.248Z,13.99
2017-10-05T18:20:53.407Z,14.16
2017-10-05T18:23:19.609Z,14.29
2017-10-05T18:25:45.783Z,14.31
2017-10-05T18:28:11.932Z,14.31
2017-10-05T18:30:38.084Z,14.27
2017-10-05T18:33:04.250Z,14.15
2017-10-05T18:35:30.419Z,14.00
2017-10-05T18:37:56.640Z,14.01
2017-10-05T18:40:22.830Z,13.90
2017-10-05T18:42:49.009Z,13.69
2017-10-05T18:45:15.267Z,13.66
2017-10-05T18:47:41.452Z,13.57
2017-10-05T18:50:07.629Z,13.63
2017-10-05T18:52:33.829Z,13.75
2017-10-05T18:55:00.058Z,13.69
2017-10-05T18:57:26.267Z,13.58
2017-10-05T18:59:52.422Z,13.51
2017-10-05T19:02:18.594Z,13.48
2017-10-05T19:04:44.781Z,13.56
2017-10-05T19:07:10.993Z,13.62
2017-10-05T19:09:37.257Z,13.50
2017-10-05T19:12:03.444Z,13.47
2017-10-05T19:14:29.607Z,13.36
2017-10-05T19:16:55.792Z,13.29
2017-10-05T19:19:21.987Z,13.22
2017-10-05T19:21:48.159Z,13.31
2017-10-05T19:24:14.328Z,13.35
2017-10-05T19:26:40.514Z,13.39
2017-10-05T19:29:06.697Z,13.52
2017-10-05T19:31:32.899Z,13.60
2017-10-05T19:33:59.078Z,13.70
2017-10-05T19:36:25.255Z,13.88
2017-10-05T19:38:51.430Z,13.85
2017-10-05T19:41:17.599Z,13.87
2017-10-05T19:43:43.998Z,13.88
2017-10-05T19:46:10.225Z,13.82
2017-10-05T19:48:36.387Z,13.77
2017-10-05T19:51:02.574Z,13.70
2017-10-05T19:53:28.752Z,13.61
2017-10-05T19:55:54.932Z,13.62
2017-10-05T19:58:21.127Z,13.55
2017-10-05T20:00:47.305Z,13.52
2017-10-05T20:03:13.471Z,13.60
2017-10-05T20:05:39.663Z,13.60
2017-10-05T20:08:05.923Z,13.53
2017-10-05T20:10:32.084Z,13.28
2017-10-05T20:12:58.261Z,13.23
2017-10-05T20:15:24.453Z,13.24
2017-10-05T20:17:50.640Z,13.23
2017-10-05T20:20:16.835Z,13.13
2017-10-05T20:22:43.000Z,13.01
2017-10-05T20:25:09.167Z,12.87
2017-10-05T20:27:35.336Z,12.76
2017-10-05T20:30:01.511Z,12.70
2017-10-05T20:32:27.691Z,12.65
2017-10-05T20:34:53.853Z,12.51
2017-10-05T20:37:20.135Z,12.40
2017-10-05T20:39:46.345Z,12.49
2017-10-05T20:42:12.522Z,12.45
2017-10-05T20:44:38.780Z,12.34
2017-10-05T20:47:04.929Z,12.19
2017-10-05T20:49:31.180Z,12.08
2017-10-05T20:51:57.353Z,12.43
2017-10-05T20:54:23.502Z,12.36
2017-10-05T20:56:49.655Z,12.43
2017-10-05T20:59:15.812Z,12.41
2017-10-05T21:01:42.007Z,12.26
2017-10-05T21:04:08.173Z,12.11
2017-10-05T21:06:34.351Z,12.17
2017-10-05T21:09:00.514Z,12.31
2017-10-05T21:11:26.698Z,12.20
2017-10-05T21:13:52.932Z,12.20
2017-10-05T21:16:19.110Z,12.11
2017-10-05T21:18:45.268Z,12.20
2017-10-05T21:21:11.431Z,12.08
2017-10-05T21:23:37.635Z,12.10
2017-10-05T21:26:03.841Z,11.81
2017-10-05T21:28:30.004Z,11.91
2017-10-05T21:30:56.177Z,11.97
2017-10-05T21:33:22.363Z,11.93
2017-10-05T21:35:48.536Z,11.87
2017-10-05T21:38:14.746Z,11.75
2017-10-05T21:40:40.918Z,11.86
2017-10-05T21:43:07.090Z,11.83
2017-10-05T21:45:33.247Z,11.63
2017-10-05T21:47:59.410Z,11.47
2017-10-05T21:50:25.643Z,11.51
2017-10-05T21:52:51.850Z,11.43
2017-10-05T21:55:18.007Z,11.31
2017-10-05T21:57:44.158Z,11.55
2017-10-05T22:00:10.308Z,11.40
2017-10-05T22:02:36.500Z,11.38
2017-10-05T22:05:02.830Z,11.43
2017-10-05T22:07:29.007Z,11.44
2017-10-05T22:09:55.162Z,11.31
2017-10-05T22:12:21.371Z,11.37
2017-10-05T22:14:47.618Z,11.66
2017-10-05T22:17:13.896Z,11.54
2017-10-05T22:19:40.113Z,11.36
2017-10-05T22:22:06.531Z,11.61
2017-10-05T22:24:32.738Z,11.62
2017-10-05T22:26:58.907Z,11.50
2017-10-05T22:29:25.064Z,11.32
2017-10-05T22:31:51.359Z,11.21
2017-10-05T22:34:17.569Z,11.12
2017-10-05T22:36:43.746Z,11.14
2017-10-05T22:39:09.921Z,11.08
2017-10-05T22:41:36.112Z,11.16
2017-10-05T22:44:02.525Z,11.03
2017-10-05T22:46:28.694Z,11.06
2017-10-05T22:48:54.852Z,11.20
2017-10-05T22:51:21.001Z,11.04
2017-10-05T22:53:47.161Z,11.24
2017-10-05T22:56:13.330Z,11.14
2017-10-05T22:58:39.508Z,10.93
2017-10-05T23:01:05.742Z,10.76
2017-10-05T23:03:31.969Z,10.96
2017-10-05T23:05:58.217Z,11.26
2017-10-05T23:08:24.431Z,11.15
2017-10-05T23:10:50.647Z,10.94
2017-10-05T23:13:16.848Z,10.77
2017-10-05T23:15:43.063Z,10.84
2017-10-05T23:18:09.286Z,10.90
2017-10-05T23:20:35.547Z,11.02
2017-10-05T23:23:01.747Z,11.16
2017-10-05T23:25:27.997Z,11.18
2017-10-05T23:27:54.299Z,10.99
2017-10-05T23:30:20.590Z,10.85
2017-10-05T23:32:46.828Z,10.94
2017-10-05T23:35:13.060Z,10.76
2017-10-05T23:37:39.312Z,10.68
2017-10-05T23:40:05.622Z,10.59
2017-10-05T23:42:31.890Z,10.64
2017-10-05T23:44:58.231Z,10.55
2017-10-05T23:47:24.443Z,10.43
2017-10-05T23:49:50.687Z,10.29
2017-10-05T23:52:16.922Z,10.23
2017-10-05T23:54:43.172Z,10.27
2017-10-05T23:57:09.415Z,10.16
2017-10-05T23:59:35.629Z,10.34
